createdAt,value
2022-10-11T00:02:34.054Z,85.38
2022-10-11T00:05:12.650Z,85.42
2022-10-11T00:07:48.428Z,85.46
2022-10-11T00:10:25.163Z,85.49
2022-10-11T00:13:01.850Z,85.59
2022-10-11T00:15:40.305Z,85.67
2022-10-11T00:18:16.046Z,85.73
2022-10-11T00:20:51.974Z,85.81
2022-10-11T00:23:27.750Z,85.92
2022-10-11T00:26:08.178Z,86.03
2022-10-11T00:28:45.215Z,86.10
2022-10-11T00:31:21.718Z,86.18
2022-10-11T00:33:58.540Z,86.29
2022-10-11T00:36:34.931Z,86.38
2022-10-11T00:39:10.929Z,86.45
2022-10-11T00:41:47.910Z,86.53
2022-10-11T00:44:29.156Z,86.58
2022-10-11T00:47:10.985Z,86.62
2022-10-11T00:49:54.923Z,86.66
2022-10-11T00:52:36.071Z,86.67
2022-10-11T00:55:18.393Z,86.70
2022-10-11T00:57:58.946Z,86.69
2022-10-11T01:00:35.150Z,86.66
2022-10-11T01:03:11.271Z,86.68
2022-10-11T01:06:14.565Z,86.67
2022-10-11T01:08:51.325Z,86.69
2022-10-11T01:11:31.126Z,86.70
2022-10-11T01:14:42.721Z,86.70
2022-10-11T01:17:35.813Z,86.69
2022-10-11T01:20:53.301Z,86.70
2022-10-11T01:24:15.596Z,86.65
2022-10-11T01:27:43.231Z,86.61
2022-10-11T01:30:29.637Z,86.56
2022-10-11T01:33:23.288Z,86.58
2022-10-11T01:36:15.694Z,86.58
2022-10-11T01:38:59.472Z,86.60
2022-10-11T01:41:42.158Z,86.65
2022-10-11T01:44:19.520Z,86.67
2022-10-11T01:46:57.098Z,86.72
2022-10-11T01:49:32.889Z,86.76
2022-10-11T01:52:12.547Z,86.78
2022-10-11T01:55:12.897Z,86.82
2022-10-11T01:58:10.854Z,86.83
2022-10-11T02:00:57.892Z,86.83
2022-10-11T02:03:46.517Z,86.88
2022-10-11T02:06:37.142Z,86.89
2022-10-11T02:09:25.667Z,86.97
2022-10-11T02:12:11.530Z,87.04
2022-10-11T02:14:53.124Z,87.11
2022-10-11T02:17:36.747Z,87.15
2022-10-11T02:20:22.910Z,87.06
2022-10-11T02:23:04.601Z,87.14
2022-10-11T02:25:41.256Z,87.19
2022-10-11T02:28:24.189Z,87.22
2022-10-11T02:31:03.603Z,87.27
2022-10-11T02:33:45.740Z,87.30
2022-10-11T02:36:28.159Z,87.32
2022-10-11T02:39:17.291Z,87.35
2022-10-11T02:41:58.348Z,87.35
2022-10-11T02:44:41.623Z,87.39
2022-10-11T02:47:18.151Z,87.42
2022-10-11T02:49:54.201Z,87.47
2022-10-11T02:52:30.311Z,87.51
2022-10-11T02:55:07.649Z,87.55
2022-10-11T02:57:43.747Z,87.65
2022-10-11T03:00:21.119Z,87.73
2022-10-11T03:02:56.883Z,87.78
2022-10-11T03:05:37.252Z,87.90
2022-10-11T03:08:16.070Z,87.97
2022-10-11T03:10:51.912Z,88.01
2022-10-11T03:13:28.813Z,88.06
2022-10-11T03:16:04.870Z,88.12
2022-10-11T03:18:40.788Z,88.19
2022-10-11T03:21:16.751Z,88.29
2022-10-11T03:23:53.388Z,88.40
2022-10-11T03:26:29.223Z,88.49
2022-10-11T03:29:05.040Z,88.58
2022-10-11T03:31:40.898Z,88.62
2022-10-11T03:34:16.853Z,88.68
2022-10-11T03:36:52.487Z,88.74
2022-10-11T03:39:28.254Z,88.76
2022-10-11T03:42:04.441Z,88.82
2022-10-11T03:44:41.916Z,88.91
2022-10-11T03:47:17.769Z,88.95
2022-10-11T03:49:54.565Z,89.01
2022-10-11T03:52:30.497Z,89.04
2022-10-11T03:55:07.339Z,88.97
2022-10-11T03:57:43.301Z,89.03
2022-10-11T04:00:20.315Z,88.92
2022-10-11T04:02:56.113Z,88.98
2022-10-11T04:05:32.036Z,88.93
2022-10-11T04:08:11.905Z,88.88
2022-10-11T04:10:49.275Z,88.79
2022-10-11T04:13:25.227Z,88.71
2022-10-11T04:16:01.458Z,88.59
2022-10-11T04:18:37.291Z,88.46
2022-10-11T04:21:15.378Z,88.38
2022-10-11T04:23:51.287Z,88.35
2022-10-11T04:26:27.686Z,88.24
2022-10-11T04:29:03.428Z,88.08
2022-10-11T04:31:39.172Z,87.94
2022-10-11T04:34:15.127Z,87.81
2022-10-11T04:36:51.091Z,87.67
2022-10-11T04:39:27.030Z,87.47
2022-10-11T04:42:02.759Z,87.36
2022-10-11T04:44:38.735Z,87.19
2022-10-11T04:47:14.835Z,87.01
2022-10-11T04:49:50.623Z,86.82
2022-10-11T04:52:27.732Z,86.68
2022-10-11T04:55:03.656Z,86.55
2022-10-11T04:57:39.536Z,86.39
2022-10-11T05:00:18.752Z,86.24
2022-10-11T05:02:55.339Z,86.02
2022-10-11T05:05:31.205Z,85.86
2022-10-11T05:08:07.243Z,85.84
2022-10-11T05:10:43.158Z,85.76
2022-10-11T05:13:18.998Z,85.48
2022-10-11T05:15:55.143Z,85.23
2022-10-11T05:18:31.876Z,85.11
2022-10-11T05:21:15.279Z,84.83
2022-10-11T05:23:53.685Z,84.64
2022-10-11T05:26:30.873Z,84.50
2022-10-11T05:29:06.881Z,84.23
2022-10-11T05:31:43.359Z,84.09
2022-10-11T05:34:19.314Z,84.00
2022-10-11T05:36:56.596Z,83.84
2022-10-11T05:39:33.066Z,83.64
2022-10-11T05:42:10.148Z,83.48
2022-10-11T05:44:46.075Z,83.35
2022-10-11T05:47:21.888Z,83.24
2022-10-11T05:49:58.402Z,83.10
2022-10-11T05:52:34.916Z,82.95
2022-10-11T05:55:12.880Z,82.88
2022-10-11T05:57:50.432Z,82.73
2022-10-11T06:00:26.898Z,82.59
2022-10-11T06:03:02.598Z,82.45
2022-10-11T06:05:40.006Z,82.43
2022-10-11T06:08:16.477Z,82.34
2022-10-11T06:10:52.626Z,82.26
2022-10-11T06:13:28.528Z,82.07
2022-10-11T06:16:06.872Z,81.90
2022-10-11T06:18:43.262Z,81.70
2022-10-11T06:21:18.975Z,81.53
2022-10-11T06:24:01.088Z,81.31
2022-10-11T06:26:37.911Z,81.19
2022-10-11T06:29:13.677Z,81.00
2022-10-11T06:31:50.555Z,80.77
2022-10-11T06:34:26.776Z,80.58
2022-10-11T06:37:03.446Z,80.38
2022-10-11T06:39:39.455Z,80.18
2022-10-11T06:42:16.026Z,80.07
2022-10-11T06:44:51.883Z,79.93
2022-10-11T06:47:28.099Z,79.71
2022-10-11T06:50:04.070Z,79.48
2022-10-11T06:52:40.014Z,79.33
2022-10-11T06:55:16.196Z,78.99
2022-10-11T06:57:52.232Z,78.78
2022-10-11T07:00:28.007Z,78.17
2022-10-11T07:03:03.890Z,77.05
2022-10-11T07:05:39.832Z,76.67
2022-10-11T07:08:15.568Z,76.10
2022-10-11T07:10:51.766Z,75.90
2022-10-11T07:13:27.534Z,75.72
2022-10-11T07:16:05.529Z,75.49
2022-10-11T07:18:41.831Z,75.14
2022-10-11T07:21:19.097Z,75.18
2022-10-11T07:23:55.461Z,74.99
2022-10-11T07:26:38.337Z,75.08
2022-10-11T07:29:16.068Z,74.83
2022-10-11T07:31:52.053Z,74.64
2022-10-11T07:34:28.089Z,74.34
2022-10-11T07:37:04.014Z,74.10
2022-10-11T07:39:39.985Z,73.79
2022-10-11T07:42:15.792Z,73.38
2022-10-11T07:44:51.711Z,73.46
2022-10-11T07:47:27.502Z,73.67
2022-10-11T07:50:03.665Z,73.87
2022-10-11T07:52:40.748Z,74.11
2022-10-11T07:55:17.441Z,74.52
2022-10-11T07:57:53.358Z,74.90
2022-10-11T08:00:29.432Z,75.06
2022-10-11T08:03:08.171Z,75.30
2022-10-11T08:05:44.059Z,75.53
2022-10-11T08:09:47.649Z,75.82
2022-10-11T08:12:42.818Z,76.10
2022-10-11T08:18:13.244Z,76.66
2022-10-11T08:20:49.508Z,76.80
2022-10-11T08:23:25.807Z,77.02
2022-10-11T08:26:02.361Z,77.15
2022-10-11T08:28:38.820Z,77.38
2022-10-11T08:31:18.469Z,77.52
2022-10-11T08:33:54.432Z,77.64
2022-10-11T08:36:30.311Z,77.74
2022-10-11T08:39:09.338Z,77.62
2022-10-11T08:41:53.732Z,77.61
2022-10-11T08:45:09.466Z,77.64
2022-10-11T08:47:44.545Z,77.68
2022-10-11T08:50:24.959Z,77.74
2022-10-11T08:53:08.730Z,77.80
2022-10-11T08:55:51.441Z,77.86
2022-10-11T08:58:39.177Z,77.87
2022-10-11T09:01:24.618Z,77.98
2022-10-11T09:04:01.440Z,77.96
2022-10-11T09:06:59.239Z,77.99
2022-10-11T09:10:09.827Z,77.97
2022-10-11T09:12:59.542Z,78.11
2022-10-11T09:15:48.640Z,77.91
2022-10-11T09:18:57.779Z,77.83
2022-10-11T09:21:49.514Z,77.48
2022-10-11T09:24:57.049Z,77.40
2022-10-11T09:28:03.190Z,76.92
2022-10-11T09:30:40.676Z,76.37
2022-10-11T09:33:28.296Z,75.69
2022-10-11T09:36:13.179Z,75.27
2022-10-11T09:39:05.739Z,74.87
2022-10-11T09:41:55.352Z,74.42
2022-10-11T09:44:36.810Z,74.17
2022-10-11T09:47:24.405Z,73.92
2022-10-11T09:50:06.606Z,73.91
2022-10-11T09:52:54.061Z,72.99
2022-10-11T09:55:50.417Z,72.45
2022-10-11T09:58:38.679Z,71.81
2022-10-11T10:01:26.996Z,70.87
2022-10-11T10:04:18.242Z,70.64
2022-10-11T10:07:13.170Z,70.21
2022-10-11T10:09:50.210Z,69.61
2022-10-11T10:12:30.465Z,68.37
2022-10-11T10:15:20.887Z,67.62
2022-10-11T10:17:57.534Z,66.54
2022-10-11T10:20:37.177Z,65.92
2022-10-11T10:23:27.503Z,66.08
2022-10-11T10:26:21.005Z,65.74
2022-10-11T10:29:18.684Z,65.70
2022-10-11T10:32:13.750Z,65.23
2022-10-11T10:35:08.803Z,64.62
2022-10-11T10:37:54.364Z,64.71
2022-10-11T10:40:41.196Z,64.46
2022-10-11T10:43:25.691Z,63.89
2022-10-11T10:46:44.971Z,63.93
2022-10-11T10:53:06.224Z,63.90
2022-10-11T10:55:52.299Z,63.93
2022-10-11T10:58:58.843Z,63.27
2022-10-11T11:01:43.805Z,63.33
2022-10-11T11:04:36.121Z,63.03
2022-10-11T11:07:29.047Z,63.38
2022-10-11T11:10:14.583Z,63.13
2022-10-11T11:13:04.032Z,63.25
2022-10-11T11:15:49.165Z,62.94
2022-10-11T11:18:46.177Z,63.09
2022-10-11T11:21:43.926Z,63.24
2022-10-11T11:24:38.921Z,62.99
2022-10-11T11:27:39.298Z,63.03
2022-10-11T11:30:24.063Z,62.63
2022-10-11T11:33:14.818Z,62.34
2022-10-11T11:35:55.239Z,61.96
2022-10-11T11:38:46.353Z,61.23
2022-10-11T11:41:29.689Z,60.84
2022-10-11T11:44:16.950Z,60.34
2022-10-11T11:47:01.468Z,60.65
2022-10-11T11:52:34.390Z,60.97
2022-10-11T11:55:23.307Z,60.60
2022-10-11T11:58:17.570Z,61.03
2022-10-11T12:01:04.360Z,61.00
2022-10-11T12:03:47.233Z,61.12
2022-10-11T12:06:32.446Z,61.04
2022-10-11T12:09:23.750Z,61.34
2022-10-11T12:12:03.931Z,61.30
2022-10-11T12:14:45.326Z,61.33
2022-10-11T12:17:25.471Z,61.17
2022-10-11T12:20:25.780Z,61.30
2022-10-11T12:23:06.357Z,61.37
2022-10-11T12:26:31.755Z,61.65
2022-10-11T12:29:51.055Z,61.93
2022-10-11T12:33:04.310Z,61.91
2022-10-11T12:36:08.210Z,61.77
2022-10-11T12:38:44.739Z,61.82
2022-10-11T12:42:31.447Z,61.57
2022-10-11T12:45:38.555Z,61.68
2022-10-11T12:48:41.035Z,61.55
2022-10-11T12:51:39.111Z,61.23
2022-10-11T12:54:54.597Z,61.36
2022-10-11T12:58:17.510Z,64.20
2022-10-11T13:01:34.703Z,65.11
2022-10-11T13:04:14.150Z,64.66
2022-10-11T13:06:56.717Z,58.60
2022-10-11T13:09:39.784Z,56.14
2022-10-11T13:12:23.311Z,55.81
2022-10-11T13:15:09.907Z,56.31
2022-10-11T13:17:46.168Z,57.49
2022-10-11T13:20:30.325Z,57.79
2022-10-11T13:23:19.554Z,58.38
2022-10-11T13:25:57.059Z,59.33
2022-10-11T13:28:36.457Z,59.37
2022-10-11T13:31:13.559Z,60.55
2022-10-11T13:33:50.037Z,60.58
2022-10-11T13:36:28.617Z,61.10
2022-10-11T13:39:05.470Z,61.00
2022-10-11T13:41:42.194Z,61.69
2022-10-11T13:44:18.461Z,61.58
2022-10-11T13:46:55.260Z,61.99
2022-10-11T13:49:40.277Z,62.12
2022-10-11T13:52:28.288Z,63.75
2022-10-11T13:55:26.605Z,68.58
2022-10-11T13:58:13.881Z,68.09
2022-10-11T14:01:03.226Z,66.11
2022-10-11T14:03:47.887Z,64.57
2022-10-11T14:06:24.080Z,63.16
2022-10-11T14:09:01.519Z,62.48
2022-10-11T14:11:42.655Z,60.37
2022-10-11T14:14:51.978Z,58.41
2022-10-11T14:17:41.981Z,56.23
2022-10-11T14:20:32.956Z,56.41
2022-10-11T14:23:09.586Z,57.04
2022-10-11T14:25:45.443Z,57.96
2022-10-11T14:28:21.208Z,58.76
2022-10-11T14:30:57.077Z,59.63
2022-10-11T14:33:33.610Z,60.72
2022-10-11T14:36:10.752Z,61.26
2022-10-11T14:38:46.465Z,64.20
2022-10-11T14:41:22.684Z,66.34
2022-10-11T14:43:58.438Z,65.08
2022-10-11T14:46:35.975Z,64.26
2022-10-11T14:49:19.878Z,64.32
2022-10-11T14:51:58.119Z,63.37
2022-10-11T14:54:35.931Z,63.02
2022-10-11T14:57:14.436Z,63.15
2022-10-11T14:59:50.262Z,63.80
2022-10-11T15:02:26.128Z,66.07
2022-10-11T15:05:01.989Z,73.20
2022-10-11T15:07:37.846Z,70.11
2022-10-11T15:10:26.200Z,67.76
2022-10-11T15:13:02.664Z,66.22
2022-10-11T15:15:42.160Z,61.72
2022-10-11T15:18:21.288Z,56.84
2022-10-11T15:20:58.266Z,55.04
2022-10-11T15:23:34.805Z,55.14
2022-10-11T15:26:14.563Z,55.99
2022-10-11T15:28:52.001Z,56.92
2022-10-11T15:31:29.709Z,57.92
2022-10-11T15:34:05.619Z,58.71
2022-10-11T15:36:41.512Z,59.68
2022-10-11T15:39:32.620Z,60.61
2022-10-11T15:42:08.912Z,67.03
2022-10-11T15:44:44.898Z,71.43
2022-10-11T15:47:20.732Z,69.30
2022-10-11T15:49:56.759Z,66.84
2022-10-11T15:52:32.533Z,63.98
2022-10-11T15:55:09.859Z,63.04
2022-10-11T15:57:45.708Z,61.72
2022-10-11T16:00:23.714Z,61.17
2022-10-11T16:03:01.610Z,60.82
2022-10-11T16:05:37.380Z,60.22
2022-10-11T16:08:13.974Z,56.48
2022-10-11T16:10:50.074Z,54.86
2022-10-11T16:13:26.018Z,55.68
2022-10-11T16:16:04.340Z,56.98
2022-10-11T16:18:40.986Z,58.19
2022-10-11T16:21:17.619Z,59.47
2022-10-11T16:23:53.551Z,60.67
2022-10-11T16:26:29.568Z,64.41
2022-10-11T16:29:06.048Z,70.35
2022-10-11T16:31:42.094Z,69.81
2022-10-11T16:34:17.804Z,68.46
2022-10-11T16:36:53.545Z,69.13
2022-10-11T16:39:29.781Z,66.95
2022-10-11T16:42:06.327Z,63.08
2022-10-11T16:44:42.755Z,63.31
2022-10-11T16:47:19.023Z,62.61
2022-10-11T16:49:54.953Z,63.30
2022-10-11T16:52:31.111Z,64.13
2022-10-11T16:55:20.573Z,63.81
2022-10-11T16:57:59.007Z,64.31
2022-10-11T17:00:35.264Z,64.13
2022-10-11T17:03:11.198Z,63.88
2022-10-11T17:05:48.035Z,63.94
2022-10-11T17:08:24.321Z,63.99
2022-10-11T17:11:00.922Z,63.95
2022-10-11T17:13:37.305Z,64.49
2022-10-11T17:16:13.889Z,64.67
2022-10-11T17:18:50.197Z,64.97
2022-10-11T17:21:26.491Z,65.62
2022-10-11T17:24:02.445Z,64.88
2022-10-11T17:26:38.717Z,65.06
2022-10-11T17:29:21.189Z,65.06
2022-10-11T17:31:57.683Z,66.59
2022-10-11T17:34:34.050Z,66.36
2022-10-11T17:37:10.312Z,66.00
2022-10-11T17:39:46.373Z,65.44
2022-10-11T17:42:22.161Z,64.13
2022-10-11T17:44:58.184Z,63.18
2022-10-11T17:47:34.535Z,62.17
2022-10-11T17:50:12.559Z,62.66
2022-10-11T17:52:49.050Z,63.05
2022-10-11T17:55:24.992Z,67.38
2022-10-11T17:58:00.907Z,70.49
2022-10-11T18:00:37.339Z,67.91
2022-10-11T18:03:13.384Z,64.62
2022-10-11T18:05:49.387Z,62.86
2022-10-11T18:08:25.265Z,62.80
2022-10-11T18:11:02.191Z,62.32
2022-10-11T18:13:38.125Z,60.56
2022-10-11T18:16:15.873Z,60.59
2022-10-11T18:18:52.129Z,56.89
2022-10-11T18:21:33.977Z,54.30
2022-10-11T18:24:18.208Z,54.98
2022-10-11T18:26:56.931Z,56.70
2022-10-11T18:29:38.214Z,58.38
2022-10-11T18:32:18.358Z,59.77
2022-10-11T18:34:55.899Z,60.92
2022-10-11T18:37:33.115Z,67.17
2022-10-11T18:40:11.497Z,74.37
2022-10-11T18:42:47.612Z,71.34
2022-10-11T18:45:23.547Z,67.62
2022-10-11T18:47:59.724Z,64.76
2022-10-11T18:50:35.990Z,62.65
2022-10-11T18:53:12.103Z,61.09
2022-10-11T18:55:48.106Z,56.58
2022-10-11T18:58:24.012Z,53.85
2022-10-11T19:01:07.265Z,54.63
2022-10-11T19:03:43.405Z,56.13
2022-10-11T19:06:23.490Z,57.77
2022-10-11T19:09:05.842Z,59.05
2022-10-11T19:11:40.620Z,60.00
2022-10-11T19:14:20.495Z,59.44
2022-10-11T19:16:58.027Z,67.00
2022-10-11T19:19:34.736Z,75.53
2022-10-11T19:22:10.691Z,71.95
2022-10-11T19:24:46.553Z,67.89
2022-10-11T19:27:22.250Z,64.70
2022-10-11T19:29:58.462Z,62.69
2022-10-11T19:32:34.235Z,62.35
2022-10-11T19:35:15.297Z,61.63
2022-10-11T19:37:54.909Z,59.91
2022-10-11T19:40:33.120Z,55.19
2022-10-11T19:43:10.225Z,53.37
2022-10-11T19:45:46.186Z,54.46
2022-10-11T19:48:22.576Z,55.87
2022-10-11T19:51:07.792Z,57.34
2022-10-11T19:53:44.162Z,58.50
2022-10-11T19:56:22.492Z,60.08
2022-10-11T19:58:59.131Z,61.25
2022-10-11T20:01:37.125Z,68.98
2022-10-11T20:04:33.049Z,75.66
2022-10-11T20:07:12.227Z,71.08
2022-10-11T20:09:48.351Z,67.03
2022-10-11T20:12:24.322Z,64.17
2022-10-11T20:15:00.468Z,62.31
2022-10-11T20:17:49.133Z,60.81
2022-10-11T20:20:24.975Z,59.83
2022-10-11T20:23:01.033Z,55.86
2022-10-11T20:25:36.878Z,53.70
2022-10-11T20:28:12.792Z,54.76
2022-10-11T20:30:49.319Z,56.41
2022-10-11T20:33:26.225Z,58.07
2022-10-11T20:36:08.983Z,59.44
2022-10-11T20:38:48.918Z,60.54
2022-10-11T20:41:31.269Z,65.81
2022-10-11T20:44:09.792Z,73.52
2022-10-11T20:46:45.600Z,72.10
2022-10-11T20:49:22.692Z,68.19
2022-10-11T20:51:58.442Z,65.35
2022-10-11T20:54:35.714Z,62.52
2022-10-11T20:57:12.285Z,61.09
2022-10-11T20:59:48.815Z,59.89
2022-10-11T21:02:24.856Z,56.01
2022-10-11T21:05:00.804Z,54.36
2022-10-11T21:07:37.082Z,55.37
2022-10-11T21:10:13.691Z,56.98
2022-10-11T21:12:49.485Z,58.08
2022-10-11T21:15:25.756Z,59.22
2022-10-11T21:18:01.677Z,60.43
2022-10-11T21:20:40.190Z,66.27
2022-10-11T21:23:18.915Z,73.76
2022-10-11T21:25:54.811Z,70.20
2022-10-11T21:28:30.947Z,68.87
2022-10-11T21:31:13.234Z,65.70
2022-10-11T21:33:49.934Z,63.44
2022-10-11T21:36:27.157Z,64.92
2022-10-11T21:39:03.044Z,64.15
2022-10-11T21:41:38.853Z,62.50
2022-10-11T21:44:15.674Z,61.92
2022-10-11T21:47:07.732Z,61.17
2022-10-11T21:49:43.740Z,59.87
2022-10-11T21:52:19.595Z,56.61
2022-10-11T21:54:55.516Z,55.91
2022-10-11T21:57:31.270Z,57.10
2022-10-11T22:00:10.863Z,58.50
2022-10-11T22:02:54.130Z,59.86
2022-10-11T22:05:29.964Z,61.05
2022-10-11T22:08:06.094Z,66.05
2022-10-11T22:10:43.678Z,74.04
2022-10-11T22:13:19.795Z,71.71
2022-10-11T22:15:56.730Z,68.87
2022-10-11T22:18:33.820Z,66.70
2022-10-11T22:21:13.720Z,65.22
2022-10-11T22:23:52.791Z,63.64
2022-10-11T22:26:31.980Z,61.78
2022-10-11T22:29:08.063Z,60.75
2022-10-11T22:31:44.455Z,60.01
2022-10-11T22:34:20.325Z,60.75
2022-10-11T22:36:56.064Z,60.45
2022-10-11T22:39:32.113Z,59.87
2022-10-11T22:42:08.109Z,60.56
2022-10-11T22:44:43.869Z,59.86
2022-10-11T22:47:19.680Z,56.94
2022-10-11T22:49:55.504Z,54.54
2022-10-11T22:52:31.379Z,55.37
2022-10-11T22:55:08.149Z,56.73
2022-10-11T22:57:43.854Z,58.00
2022-10-11T23:00:21.455Z,59.26
2022-10-11T23:02:57.599Z,60.31
2022-10-11T23:05:33.484Z,61.36
2022-10-11T23:08:10.439Z,66.20
2022-10-11T23:10:46.195Z,71.86
2022-10-11T23:13:21.947Z,72.11
2022-10-11T23:15:57.683Z,71.76
2022-10-11T23:18:33.504Z,70.82
2022-10-11T23:21:10.277Z,68.83
2022-10-11T23:23:46.161Z,65.86
2022-10-11T23:26:22.536Z,63.08
2022-10-11T23:29:00.394Z,60.57
2022-10-11T23:31:36.434Z,55.90
2022-10-11T23:34:12.100Z,54.28
2022-10-11T23:36:47.905Z,55.36
2022-10-11T23:39:24.094Z,56.74
2022-10-11T23:41:59.973Z,58.12
2022-10-11T23:44:35.749Z,59.05
2022-10-11T23:47:11.612Z,60.13
2022-10-11T23:49:47.785Z,61.48
2022-10-11T23:52:23.644Z,68.54
2022-10-11T23:54:59.381Z,77.09
2022-10-11T23:57:35.471Z,73.42
